sensor_id;sensor_type;location;lat;lon;timestamp;temperature;humidity
2945;DHT22;1482;51.398;7.128;2023-02-23T00:01:19;10.10;1.00
2945;DHT22;1482;51.398;7.128;2023-02-23T00:03:46;10.30;99.90
2945;DHT22;1482;51.398;7.128;2023-02-23T00:06:14;10.40;1.00
2945;DHT22;1482;51.398;7.128;2023-02-23T00:08:39;10.30;99.90
2945;DHT22;1482;51.398;7.128;2023-02-23T00:11:08;10.20;1.00
2945;DHT22;1482;51.398;7.128;2023-02-23T00:13:35;10.30;1.00
2945;DHT22;1482;51.398;7.128;2023-02-23T00:16:10;10.20;99.90
2945;DHT22;1482;51.398;7.128;2023-02-23T00:18:43;10.40;1.00
2945;DHT22;1482;51.398;7.128;2023-02-23T00:21:14;10.40;99.90
2945;DHT22;1482;51.398;7.128;2023-02-23T00:23:42;10.50;56.90
2945;DHT22;1482;51.398;7.128;2023-02-23T00:26:08;10.60;1.00
2945;DHT22;1482;51.398;7.128;2023-02-23T00:28:33;10.60;1.00
2945;DHT22;1482;51.398;7.128;2023-02-23T00:31:01;10.60;1.00
2945;DHT22;1482;51.398;7.128;2023-02-23T00:33:27;10.60;1.00
2945;DHT22;1482;51.398;7.128;2023-02-23T00:35:54;10.40;1.00
2945;DHT22;1482;51.398;7.128;2023-02-23T00:38:20;10.20;99.90
2945;DHT22;1482;51.398;7.128;2023-02-23T00:40:46;10.10;1.00
2945;DHT22;1482;51.398;7.128;2023-02-23T00:43:11;9.90;1.00
2945;DHT22;1482;51.398;7.128;2023-02-23T00:45:37;10.10;99.90
2945;DHT22;1482;51.398;7.128;2023-02-23T00:48:03;10.20;57.00
2945;DHT22;1482;51.398;7.128;2023-02-23T00:50:35;10.20;19.70
2945;DHT22;1482;51.398;7.128;2023-02-23T00:53:03;10.30;1.00
2945;DHT22;1482;51.398;7.128;2023-02-23T00:55:29;10.10;1.00
2945;DHT22;1482;51.398;7.128;2023-02-23T00:57:55;10.10;99.90
2945;DHT22;1482;51.398;7.128;2023-02-23T01:00:22;10.00;99.90
2945;DHT22;1482;51.398;7.128;2023-02-23T01:02:49;10.00;1.00
2945;DHT22;1482;51.398;7.128;2023-02-23T01:05:15;9.80;99.90
2945;DHT22;1482;51.398;7.128;2023-02-23T01:07:41;10.00;1.00
2945;DHT22;1482;51.398;7.128;2023-02-23T01:10:11;10.00;1.00
2945;DHT22;1482;51.398;7.128;2023-02-23T01:12:46;9.80;18.60
2945;DHT22;1482;51.398;7.128;2023-02-23T01:15:12;9.70;1.00
2945;DHT22;1482;51.398;7.128;2023-02-23T01:17:38;9.80;99.90
2945;DHT22;1482;51.398;7.128;2023-02-23T01:20:04;9.90;1.00
2945;DHT22;1482;51.398;7.128;2023-02-23T01:22:41;9.90;99.90
2945;DHT22;1482;51.398;7.128;2023-02-23T01:25:07;9.90;99.90
2945;DHT22;1482;51.398;7.128;2023-02-23T01:27:32;10.00;99.90
2945;DHT22;1482;51.398;7.128;2023-02-23T01:29:59;9.80;1.00
2945;DHT22;1482;51.398;7.128;2023-02-23T01:32:25;9.90;97.20
2945;DHT22;1482;51.398;7.128;2023-02-23T01:34:51;10.00;99.90
2945;DHT22;1482;51.398;7.128;2023-02-23T01:37:16;9.70;41.30
2945;DHT22;1482;51.398;7.128;2023-02-23T01:39:42;9.60;45.50
2945;DHT22;1482;51.398;7.128;2023-02-23T01:42:13;9.70;99.90
2945;DHT22;1482;51.398;7.128;2023-02-23T01:47:04;9.70;99.90
2945;DHT22;1482;51.398;7.128;2023-02-23T01:49:31;9.60;99.90
2945;DHT22;1482;51.398;7.128;2023-02-23T01:52:09;9.70;99.90
2945;DHT22;1482;51.398;7.128;2023-02-23T01:54:42;9.80;99.90
2945;DHT22;1482;51.398;7.128;2023-02-23T01:57:11;9.80;99.90
2945;DHT22;1482;51.398;7.128;2023-02-23T01:59:41;9.60;99.90
2945;DHT22;1482;51.398;7.128;2023-02-23T02:02:07;9.70;1.00
2945;DHT22;1482;51.398;7.128;2023-02-23T02:04:35;9.70;99.90
2945;DHT22;1482;51.398;7.128;2023-02-23T02:09:39;9.60;99.90
2945;DHT22;1482;51.398;7.128;2023-02-23T02:12:11;9.60;99.90
2945;DHT22;1482;51.398;7.128;2023-02-23T02:14:37;9.50;1.00
2945;DHT22;1482;51.398;7.128;2023-02-23T02:17:21;9.60;1.00
2945;DHT22;1482;51.398;7.128;2023-02-23T02:20:29;9.50;1.00
2945;DHT22;1482;51.398;7.128;2023-02-23T02:29:16;9.50;1.00
2945;DHT22;1482;51.398;7.128;2023-02-23T02:37:38;9.70;1.00
2945;DHT22;1482;51.398;7.128;2023-02-23T02:40:50;9.90;99.90
2945;DHT22;1482;51.398;7.128;2023-02-23T02:43:44;10.00;1.00
2945;DHT22;1482;51.398;7.128;2023-02-23T02:46:18;10.10;99.90
2945;DHT22;1482;51.398;7.128;2023-02-23T02:51:28;10.20;1.00
2945;DHT22;1482;51.398;7.128;2023-02-23T02:56:35;10.20;1.00
2945;DHT22;1482;51.398;7.128;2023-02-23T02:59:11;10.20;1.00
2945;DHT22;1482;51.398;7.128;2023-02-23T03:01:56;10.00;99.90
2945;DHT22;1482;51.398;7.128;2023-02-23T03:04:40;10.00;10.80
2945;DHT22;1482;51.398;7.128;2023-02-23T03:07:44;10.00;99.90
2945;DHT22;1482;51.398;7.128;2023-02-23T03:17:02;10.20;1.00
2945;DHT22;1482;51.398;7.128;2023-02-23T03:20:25;10.30;1.00
2945;DHT22;1482;51.398;7.128;2023-02-23T03:23:18;10.30;99.90
2945;DHT22;1482;51.398;7.128;2023-02-23T03:29:24;10.30;99.90
2945;DHT22;1482;51.398;7.128;2023-02-23T03:32:30;10.30;99.90
2945;DHT22;1482;51.398;7.128;2023-02-23T03:35:49;10.30;99.90
2945;DHT22;1482;51.398;7.128;2023-02-23T03:41:46;10.40;99.90
2945;DHT22;1482;51.398;7.128;2023-02-23T03:44:35;10.40;99.90
2945;DHT22;1482;51.398;7.128;2023-02-23T03:47:23;10.40;99.90
2945;DHT22;1482;51.398;7.128;2023-02-23T03:50:14;10.40;99.90
2945;DHT22;1482;51.398;7.128;2023-02-23T03:53:03;10.40;99.90
2945;DHT22;1482;51.398;7.128;2023-02-23T03:55:52;10.50;1.00
2945;DHT22;1482;51.398;7.128;2023-02-23T03:58:44;10.40;1.00
2945;DHT22;1482;51.398;7.128;2023-02-23T04:01:30;10.40;1.00
2945;DHT22;1482;51.398;7.128;2023-02-23T04:04:15;10.40;1.00
2945;DHT22;1482;51.398;7.128;2023-02-23T04:07:01;10.40;1.00
2945;DHT22;1482;51.398;7.128;2023-02-23T04:09:47;10.40;1.00
2945;DHT22;1482;51.398;7.128;2023-02-23T04:12:44;10.40;1.00
2945;DHT22;1482;51.398;7.128;2023-02-23T04:15:44;10.40;99.90
2945;DHT22;1482;51.398;7.128;2023-02-23T04:18:17;10.40;1.00
2945;DHT22;1482;51.398;7.128;2023-02-23T04:20:44;10.40;1.00
2945;DHT22;1482;51.398;7.128;2023-02-23T04:23:10;10.30;1.00
2945;DHT22;1482;51.398;7.128;2023-02-23T04:25:36;10.40;1.00
2945;DHT22;1482;51.398;7.128;2023-02-23T04:28:01;10.40;1.00
2945;DHT22;1482;51.398;7.128;2023-02-23T04:30:28;10.40;99.90
2945;DHT22;1482;51.398;7.128;2023-02-23T04:32:54;10.40;99.90
2945;DHT22;1482;51.398;7.128;2023-02-23T04:35:20;10.40;99.90
2945;DHT22;1482;51.398;7.128;2023-02-23T04:37:46;10.40;99.90
2945;DHT22;1482;51.398;7.128;2023-02-23T04:40:11;10.30;99.90
2945;DHT22;1482;51.398;7.128;2023-02-23T04:42:38;10.30;99.90
2945;DHT22;1482;51.398;7.128;2023-02-23T04:45:04;10.40;99.90
2945;DHT22;1482;51.398;7.128;2023-02-23T04:47:30;10.30;99.90
2945;DHT22;1482;51.398;7.128;2023-02-23T04:49:55;10.30;99.90
2945;DHT22;1482;51.398;7.128;2023-02-23T04:52:21;10.30;1.00
2945;DHT22;1482;51.398;7.128;2023-02-23T04:54:46;10.20;1.00
2945;DHT22;1482;51.398;7.128;2023-02-23T04:57:12;10.20;1.00
2945;DHT22;1482;51.398;7.128;2023-02-23T04:59:37;10.20;1.00
2945;DHT22;1482;51.398;7.128;2023-02-23T05:02:03;10.20;1.00
2945;DHT22;1482;51.398;7.128;2023-02-23T05:04:29;10.20;1.00
2945;DHT22;1482;51.398;7.128;2023-02-23T05:06:54;10.20;1.00
2945;DHT22;1482;51.398;7.128;2023-02-23T05:09:20;10.30;99.90
2945;DHT22;1482;51.398;7.128;2023-02-23T05:11:46;10.30;1.00
2945;DHT22;1482;51.398;7.128;2023-02-23T05:14:11;10.30;99.90
2945;DHT22;1482;51.398;7.128;2023-02-23T05:16:37;10.30;99.90
2945;DHT22;1482;51.398;7.128;2023-02-23T05:19:03;10.20;99.90
2945;DHT22;1482;51.398;7.128;2023-02-23T05:21:29;10.30;99.90
2945;DHT22;1482;51.398;7.128;2023-02-23T05:23:55;10.20;99.90
2945;DHT22;1482;51.398;7.128;2023-02-23T05:26:21;10.30;99.90
2945;DHT22;1482;51.398;7.128;2023-02-23T05:28:47;10.30;99.90
2945;DHT22;1482;51.398;7.128;2023-02-23T05:31:13;10.20;99.90
2945;DHT22;1482;51.398;7.128;2023-02-23T05:33:38;10.20;99.90
2945;DHT22;1482;51.398;7.128;2023-02-23T05:36:15;10.20;1.00
2945;DHT22;1482;51.398;7.128;2023-02-23T05:38:42;10.10;1.00
2945;DHT22;1482;51.398;7.128;2023-02-23T05:41:09;10.10;1.00
2945;DHT22;1482;51.398;7.128;2023-02-23T05:43:35;10.00;1.00
2945;DHT22;1482;51.398;7.128;2023-02-23T05:46:05;10.00;1.00
2945;DHT22;1482;51.398;7.128;2023-02-23T05:48:31;10.00;99.90
2945;DHT22;1482;51.398;7.128;2023-02-23T05:51:00;10.00;1.00
2945;DHT22;1482;51.398;7.128;2023-02-23T05:53:26;10.00;99.90
2945;DHT22;1482;51.398;7.128;2023-02-23T05:55:52;10.10;36.30
2945;DHT22;1482;51.398;7.128;2023-02-23T05:58:18;10.10;1.00
2945;DHT22;1482;51.398;7.128;2023-02-23T06:00:43;10.00;1.00
2945;DHT22;1482;51.398;7.128;2023-02-23T06:03:09;10.10;1.00
2945;DHT22;1482;51.398;7.128;2023-02-23T06:05:34;10.10;1.00
2945;DHT22;1482;51.398;7.128;2023-02-23T06:08:00;10.10;1.00
2945;DHT22;1482;51.398;7.128;2023-02-23T06:10:26;10.10;1.00
2945;DHT22;1482;51.398;7.128;2023-02-23T06:12:51;10.10;1.00
2945;DHT22;1482;51.398;7.128;2023-02-23T06:15:17;10.10;1.00
2945;DHT22;1482;51.398;7.128;2023-02-23T06:17:42;10.10;1.00
2945;DHT22;1482;51.398;7.128;2023-02-23T06:20:09;10.10;1.00
2945;DHT22;1482;51.398;7.128;2023-02-23T06:22:34;10.10;1.00
2945;DHT22;1482;51.398;7.128;2023-02-23T06:25:00;10.10;1.00
2945;DHT22;1482;51.398;7.128;2023-02-23T06:27:29;10.10;1.00
2945;DHT22;1482;51.398;7.128;2023-02-23T06:29:56;10.10;1.00
2945;DHT22;1482;51.398;7.128;2023-02-23T06:32:21;10.10;1.00
2945;DHT22;1482;51.398;7.128;2023-02-23T06:34:47;10.10;1.00
2945;DHT22;1482;51.398;7.128;2023-02-23T06:37:13;10.10;1.00
2945;DHT22;1482;51.398;7.128;2023-02-23T06:39:38;10.10;1.00
2945;DHT22;1482;51.398;7.128;2023-02-23T06:42:04;10.10;1.00
2945;DHT22;1482;51.398;7.128;2023-02-23T06:44:29;10.10;1.00
2945;DHT22;1482;51.398;7.128;2023-02-23T06:46:55;10.10;1.00
2945;DHT22;1482;51.398;7.128;2023-02-23T06:49:20;10.10;1.00
2945;DHT22;1482;51.398;7.128;2023-02-23T06:51:46;10.10;1.00
2945;DHT22;1482;51.398;7.128;2023-02-23T06:54:12;10.20;1.00
2945;DHT22;1482;51.398;7.128;2023-02-23T06:56:37;10.20;1.00
2945;DHT22;1482;51.398;7.128;2023-02-23T06:59:03;10.20;1.00
2945;DHT22;1482;51.398;7.128;2023-02-23T07:01:28;10.20;1.00
2945;DHT22;1482;51.398;7.128;2023-02-23T07:03:54;10.20;1.00
2945;DHT22;1482;51.398;7.128;2023-02-23T07:06:20;10.20;1.00
2945;DHT22;1482;51.398;7.128;2023-02-23T07:08:45;10.20;1.00
2945;DHT22;1482;51.398;7.128;2023-02-23T07:11:13;10.20;1.00
2945;DHT22;1482;51.398;7.128;2023-02-23T07:13:40;10.20;1.00
2945;DHT22;1482;51.398;7.128;2023-02-23T07:16:07;10.20;1.00
2945;DHT22;1482;51.398;7.128;2023-02-23T07:18:33;10.20;1.00
2945;DHT22;1482;51.398;7.128;2023-02-23T07:20:58;10.20;1.00
2945;DHT22;1482;51.398;7.128;2023-02-23T07:23:24;10.20;1.00
2945;DHT22;1482;51.398;7.128;2023-02-23T07:25:51;10.20;1.00
2945;DHT22;1482;51.398;7.128;2023-02-23T07:28:18;10.20;1.00
2945;DHT22;1482;51.398;7.128;2023-02-23T07:30:43;10.20;1.00
2945;DHT22;1482;51.398;7.128;2023-02-23T07:33:09;10.20;1.00
2945;DHT22;1482;51.398;7.128;2023-02-23T07:35:35;10.30;1.00
2945;DHT22;1482;51.398;7.128;2023-02-23T07:38:00;10.30;1.00
2945;DHT22;1482;51.398;7.128;2023-02-23T07:40:26;10.20;1.00
2945;DHT22;1482;51.398;7.128;2023-02-23T07:42:51;10.30;99.90
2945;DHT22;1482;51.398;7.128;2023-02-23T07:45:17;10.30;99.90
2945;DHT22;1482;51.398;7.128;2023-02-23T07:47:43;10.30;99.90
2945;DHT22;1482;51.398;7.128;2023-02-23T07:50:09;10.40;99.90
2945;DHT22;1482;51.398;7.128;2023-02-23T07:52:37;10.30;99.90
2945;DHT22;1482;51.398;7.128;2023-02-23T07:55:03;10.30;1.00
2945;DHT22;1482;51.398;7.128;2023-02-23T07:57:29;10.30;1.00
2945;DHT22;1482;51.398;7.128;2023-02-23T07:59:54;10.40;99.90
2945;DHT22;1482;51.398;7.128;2023-02-23T08:02:20;10.40;99.90
2945;DHT22;1482;51.398;7.128;2023-02-23T08:04:46;10.40;99.90
2945;DHT22;1482;51.398;7.128;2023-02-23T08:07:12;10.40;99.90
2945;DHT22;1482;51.398;7.128;2023-02-23T08:09:37;10.40;99.90
2945;DHT22;1482;51.398;7.128;2023-02-23T08:12:03;10.40;99.90
2945;DHT22;1482;51.398;7.128;2023-02-23T08:14:29;10.40;99.90
2945;DHT22;1482;51.398;7.128;2023-02-23T08:16:55;10.40;99.90
2945;DHT22;1482;51.398;7.128;2023-02-23T08:19:20;10.40;99.90
2945;DHT22;1482;51.398;7.128;2023-02-23T08:21:48;10.40;99.90
2945;DHT22;1482;51.398;7.128;2023-02-23T08:24:14;10.30;99.90
2945;DHT22;1482;51.398;7.128;2023-02-23T08:26:39;10.40;1.00
2945;DHT22;1482;51.398;7.128;2023-02-23T08:29:05;10.40;99.90
2945;DHT22;1482;51.398;7.128;2023-02-23T08:31:30;10.50;99.90
2945;DHT22;1482;51.398;7.128;2023-02-23T08:33:57;10.50;99.90
2945;DHT22;1482;51.398;7.128;2023-02-23T08:36:23;10.50;99.90
2945;DHT22;1482;51.398;7.128;2023-02-23T08:38:48;10.60;99.90
2945;DHT22;1482;51.398;7.128;2023-02-23T08:41:14;10.60;99.90
2945;DHT22;1482;51.398;7.128;2023-02-23T08:43:40;10.60;99.90
2945;DHT22;1482;51.398;7.128;2023-02-23T08:46:06;10.50;99.90
2945;DHT22;1482;51.398;7.128;2023-02-23T08:48:32;10.60;99.90
2945;DHT22;1482;51.398;7.128;2023-02-23T08:50:58;10.50;99.90
2945;DHT22;1482;51.398;7.128;2023-02-23T08:53:25;10.40;99.90
2945;DHT22;1482;51.398;7.128;2023-02-23T08:56:02;10.50;99.90
2945;DHT22;1482;51.398;7.128;2023-02-23T08:58:29;10.50;99.90
2945;DHT22;1482;51.398;7.128;2023-02-23T09:00:55;10.50;99.90
2945;DHT22;1482;51.398;7.128;2023-02-23T09:03:22;10.50;99.90
2945;DHT22;1482;51.398;7.128;2023-02-23T09:05:48;10.60;99.90
2945;DHT22;1482;51.398;7.128;2023-02-23T09:08:14;10.60;99.90
2945;DHT22;1482;51.398;7.128;2023-02-23T09:10:41;10.60;76.80
2945;DHT22;1482;51.398;7.128;2023-02-23T09:13:11;10.60;99.90
2945;DHT22;1482;51.398;7.128;2023-02-23T09:15:38;10.70;99.90
2945;DHT22;1482;51.398;7.128;2023-02-23T09:18:06;10.70;99.90
2945;DHT22;1482;51.398;7.128;2023-02-23T09:20:32;10.80;70.50
2945;DHT22;1482;51.398;7.128;2023-02-23T09:22:58;10.70;99.90
2945;DHT22;1482;51.398;7.128;2023-02-23T09:25:24;10.80;1.00
2945;DHT22;1482;51.398;7.128;2023-02-23T09:27:53;10.80;1.00
2945;DHT22;1482;51.398;7.128;2023-02-23T09:30:21;10.90;1.00
2945;DHT22;1482;51.398;7.128;2023-02-23T09:32:47;10.80;1.00
2945;DHT22;1482;51.398;7.128;2023-02-23T09:35:14;10.80;1.00
2945;DHT22;1482;51.398;7.128;2023-02-23T09:37:47;10.80;1.00
2945;DHT22;1482;51.398;7.128;2023-02-23T09:40:22;10.70;1.00
2945;DHT22;1482;51.398;7.128;2023-02-23T09:50:27;10.60;1.00
2945;DHT22;1482;51.398;7.128;2023-02-23T09:52:58;10.60;1.00
2945;DHT22;1482;51.398;7.128;2023-02-23T09:55:26;10.70;1.00
2945;DHT22;1482;51.398;7.128;2023-02-23T09:57:52;10.70;1.00
2945;DHT22;1482;51.398;7.128;2023-02-23T10:00:22;10.80;1.00
2945;DHT22;1482;51.398;7.128;2023-02-23T10:05:45;10.90;1.00
2945;DHT22;1482;51.398;7.128;2023-02-23T10:08:24;10.90;1.00
2945;DHT22;1482;51.398;7.128;2023-02-23T10:11:06;10.90;1.00
2945;DHT22;1482;51.398;7.128;2023-02-23T10:13:46;10.90;1.00
2945;DHT22;1482;51.398;7.128;2023-02-23T10:16:21;10.80;1.00
2945;DHT22;1482;51.398;7.128;2023-02-23T10:19:28;10.80;1.00
2945;DHT22;1482;51.398;7.128;2023-02-23T10:22:01;10.80;1.00
2945;DHT22;1482;51.398;7.128;2023-02-23T10:24:34;10.70;1.00
2945;DHT22;1482;51.398;7.128;2023-02-23T10:27:17;10.70;1.00
2945;DHT22;1482;51.398;7.128;2023-02-23T10:29:54;10.70;1.00
2945;DHT22;1482;51.398;7.128;2023-02-23T10:35:15;10.70;1.00
2945;DHT22;1482;51.398;7.128;2023-02-23T10:37:41;10.60;1.00
2945;DHT22;1482;51.398;7.128;2023-02-23T10:40:14;10.70;1.00
2945;DHT22;1482;51.398;7.128;2023-02-23T10:42:41;10.80;1.00
2945;DHT22;1482;51.398;7.128;2023-02-23T10:45:14;10.80;1.00
2945;DHT22;1482;51.398;7.128;2023-02-23T10:48:01;10.80;1.00
2945;DHT22;1482;51.398;7.128;2023-02-23T10:50:29;10.90;1.00
2945;DHT22;1482;51.398;7.128;2023-02-23T10:55:46;11.00;1.00
2945;DHT22;1482;51.398;7.128;2023-02-23T10:58:23;11.00;1.00
2945;DHT22;1482;51.398;7.128;2023-02-23T11:01:03;10.90;1.00
2945;DHT22;1482;51.398;7.128;2023-02-23T11:03:38;10.80;1.00
2945;DHT22;1482;51.398;7.128;2023-02-23T11:06:04;10.80;1.00
2945;DHT22;1482;51.398;7.128;2023-02-23T11:08:36;10.70;99.90
2945;DHT22;1482;51.398;7.128;2023-02-23T11:13:41;10.50;1.00
2945;DHT22;1482;51.398;7.128;2023-02-23T11:16:16;10.50;1.00
2945;DHT22;1482;51.398;7.128;2023-02-23T11:18:54;10.50;1.00
2945;DHT22;1482;51.398;7.128;2023-02-23T11:21:31;10.40;1.00
2945;DHT22;1482;51.398;7.128;2023-02-23T11:24:09;10.40;1.00
2945;DHT22;1482;51.398;7.128;2023-02-23T11:26:40;10.50;1.00
2945;DHT22;1482;51.398;7.128;2023-02-23T11:31:50;10.50;1.00
2945;DHT22;1482;51.398;7.128;2023-02-23T11:34:31;10.40;1.00
2945;DHT22;1482;51.398;7.128;2023-02-23T11:37:06;10.40;1.00
2945;DHT22;1482;51.398;7.128;2023-02-23T11:39:32;10.30;1.00
2945;DHT22;1482;51.398;7.128;2023-02-23T11:42:17;10.30;1.00
2945;DHT22;1482;51.398;7.128;2023-02-23T11:44:51;10.40;1.00
2945;DHT22;1482;51.398;7.128;2023-02-23T11:47:27;10.40;1.00
2945;DHT22;1482;51.398;7.128;2023-02-23T11:49:54;10.40;1.00
2945;DHT22;1482;51.398;7.128;2023-02-23T11:52:21;10.50;1.00
2945;DHT22;1482;51.398;7.128;2023-02-23T11:55:01;10.40;1.00
2945;DHT22;1482;51.398;7.128;2023-02-23T11:57:33;10.40;1.00
2945;DHT22;1482;51.398;7.128;2023-02-23T12:00:03;10.40;1.00
2945;DHT22;1482;51.398;7.128;2023-02-23T12:02:45;10.50;1.00
2945;DHT22;1482;51.398;7.128;2023-02-23T12:05:22;10.60;1.00
2945;DHT22;1482;51.398;7.128;2023-02-23T12:10:36;10.50;1.00
2945;DHT22;1482;51.398;7.128;2023-02-23T12:16:17;10.30;99.90
2945;DHT22;1482;51.398;7.128;2023-02-23T12:23:40;10.20;1.00
2945;DHT22;1482;51.398;7.128;2023-02-23T12:26:16;10.10;1.00
2945;DHT22;1482;51.398;7.128;2023-02-23T12:31:23;10.10;1.00
2945;DHT22;1482;51.398;7.128;2023-02-23T12:34:00;10.00;1.00
2945;DHT22;1482;51.398;7.128;2023-02-23T12:36:35;9.90;1.00
2945;DHT22;1482;51.398;7.128;2023-02-23T12:39:30;9.90;1.00
2945;DHT22;1482;51.398;7.128;2023-02-23T12:44:31;10.10;1.00
2945;DHT22;1482;51.398;7.128;2023-02-23T12:47:03;10.10;1.00
2945;DHT22;1482;51.398;7.128;2023-02-23T12:49:36;10.10;1.00
2945;DHT22;1482;51.398;7.128;2023-02-23T12:52:16;10.30;1.00
2945;DHT22;1482;51.398;7.128;2023-02-23T12:54:44;10.40;1.00
2945;DHT22;1482;51.398;7.128;2023-02-23T13:02:28;10.70;99.90
2945;DHT22;1482;51.398;7.128;2023-02-23T13:05:20;10.80;99.90
2945;DHT22;1482;51.398;7.128;2023-02-23T13:08:06;10.80;99.90
2945;DHT22;1482;51.398;7.128;2023-02-23T13:13:39;10.60;99.90
2945;DHT22;1482;51.398;7.128;2023-02-23T13:18:51;10.60;99.90
2945;DHT22;1482;51.398;7.128;2023-02-23T13:21:31;10.50;99.90
2945;DHT22;1482;51.398;7.128;2023-02-23T13:24:05;10.50;99.90
2945;DHT22;1482;51.398;7.128;2023-02-23T13:29:32;10.50;99.90
2945;DHT22;1482;51.398;7.128;2023-02-23T13:32:01;10.40;99.90
2945;DHT22;1482;51.398;7.128;2023-02-23T13:34:32;10.40;99.90
2945;DHT22;1482;51.398;7.128;2023-02-23T13:37:02;10.40;99.90
2945;DHT22;1482;51.398;7.128;2023-02-23T13:42:30;10.30;99.90
2945;DHT22;1482;51.398;7.128;2023-02-23T13:45:39;10.30;99.90
2945;DHT22;1482;51.398;7.128;2023-02-23T13:56:43;10.10;99.90
2945;DHT22;1482;51.398;7.128;2023-02-23T13:59:16;10.10;99.90
2945;DHT22;1482;51.398;7.128;2023-02-23T14:01:44;10.10;99.90
2945;DHT22;1482;51.398;7.128;2023-02-23T14:04:23;10.20;99.90
2945;DHT22;1482;51.398;7.128;2023-02-23T14:07:31;10.20;99.90
2945;DHT22;1482;51.398;7.128;2023-02-23T14:10:04;10.10;99.90
2945;DHT22;1482;51.398;7.128;2023-02-23T14:12:39;9.90;99.90
2945;DHT22;1482;51.398;7.128;2023-02-23T14:23:28;9.70;99.90
2945;DHT22;1482;51.398;7.128;2023-02-23T14:26:13;9.80;99.90
2945;DHT22;1482;51.398;7.128;2023-02-23T14:29:09;9.80;99.90
2945;DHT22;1482;51.398;7.128;2023-02-23T14:31:34;9.80;99.90
2945;DHT22;1482;51.398;7.128;2023-02-23T14:34:06;9.80;99.90
2945;DHT22;1482;51.398;7.128;2023-02-23T14:36:42;9.60;99.90
2945;DHT22;1482;51.398;7.128;2023-02-23T14:39:15;9.60;99.90
2945;DHT22;1482;51.398;7.128;2023-02-23T14:42:05;9.60;99.90
2945;DHT22;1482;51.398;7.128;2023-02-23T14:44:37;9.50;99.90
2945;DHT22;1482;51.398;7.128;2023-02-23T14:47:10;9.60;99.90
2945;DHT22;1482;51.398;7.128;2023-02-23T14:49:42;9.60;99.90
2945;DHT22;1482;51.398;7.128;2023-02-23T14:52:29;9.50;99.90
2945;DHT22;1482;51.398;7.128;2023-02-23T14:57:39;9.80;99.90
2945;DHT22;1482;51.398;7.128;2023-02-23T15:00:25;9.60;99.90
2945;DHT22;1482;51.398;7.128;2023-02-23T15:03:05;9.70;99.90
2945;DHT22;1482;51.398;7.128;2023-02-23T15:05:51;9.70;99.90
2945;DHT22;1482;51.398;7.128;2023-02-23T15:08:22;9.70;99.90
2945;DHT22;1482;51.398;7.128;2023-02-23T15:10:52;9.70;99.90
2945;DHT22;1482;51.398;7.128;2023-02-23T15:13:28;9.80;99.90
2945;DHT22;1482;51.398;7.128;2023-02-23T15:15:55;9.70;99.90
2945;DHT22;1482;51.398;7.128;2023-02-23T15:18:30;9.70;99.90
2945;DHT22;1482;51.398;7.128;2023-02-23T15:20:56;9.70;99.90
2945;DHT22;1482;51.398;7.128;2023-02-23T15:23:23;9.70;99.90
2945;DHT22;1482;51.398;7.128;2023-02-23T15:25:48;9.70;99.90
2945;DHT22;1482;51.398;7.128;2023-02-23T15:28:26;9.70;99.90
2945;DHT22;1482;51.398;7.128;2023-02-23T15:30:55;9.70;99.90
2945;DHT22;1482;51.398;7.128;2023-02-23T15:33:23;9.70;99.90
2945;DHT22;1482;51.398;7.128;2023-02-23T15:36:06;9.70;99.90
2945;DHT22;1482;51.398;7.128;2023-02-23T15:38:38;9.80;99.90
2945;DHT22;1482;51.398;7.128;2023-02-23T15:41:07;9.80;99.90
2945;DHT22;1482;51.398;7.128;2023-02-23T15:43:33;9.80;99.90
2945;DHT22;1482;51.398;7.128;2023-02-23T15:46:02;9.80;99.90
2945;DHT22;1482;51.398;7.128;2023-02-23T15:48:46;9.80;99.90
2945;DHT22;1482;51.398;7.128;2023-02-23T15:53:47;9.80;99.90
2945;DHT22;1482;51.398;7.128;2023-02-23T15:56:20;9.80;99.90
2945;DHT22;1482;51.398;7.128;2023-02-23T15:58:50;9.90;99.90
2945;DHT22;1482;51.398;7.128;2023-02-23T16:01:29;9.90;99.90
2945;DHT22;1482;51.398;7.128;2023-02-23T16:04:16;9.90;99.90
2945;DHT22;1482;51.398;7.128;2023-02-23T16:06:52;9.70;99.90
2945;DHT22;1482;51.398;7.128;2023-02-23T16:14:41;9.90;99.90
2945;DHT22;1482;51.398;7.128;2023-02-23T16:17:23;9.90;99.90
2945;DHT22;1482;51.398;7.128;2023-02-23T16:19:50;9.90;99.90
2945;DHT22;1482;51.398;7.128;2023-02-23T16:22:21;9.90;99.90
2945;DHT22;1482;51.398;7.128;2023-02-23T16:24:58;9.90;99.90
2945;DHT22;1482;51.398;7.128;2023-02-23T16:27:26;9.90;99.90
2945;DHT22;1482;51.398;7.128;2023-02-23T16:30:10;9.90;99.90
2945;DHT22;1482;51.398;7.128;2023-02-23T16:32:40;9.90;99.90
2945;DHT22;1482;51.398;7.128;2023-02-23T16:35:19;9.90;99.90
2945;DHT22;1482;51.398;7.128;2023-02-23T16:38:35;9.90;99.90
2945;DHT22;1482;51.398;7.128;2023-02-23T16:41:01;9.90;99.90
2945;DHT22;1482;51.398;7.128;2023-02-23T16:43:28;9.70;99.90
2945;DHT22;1482;51.398;7.128;2023-02-23T16:45:55;9.50;99.90
2945;DHT22;1482;51.398;7.128;2023-02-23T16:48:21;9.50;99.90
2945;DHT22;1482;51.398;7.128;2023-02-23T16:50:48;9.60;99.90
2945;DHT22;1482;51.398;7.128;2023-02-23T16:53:15;9.70;99.90
2945;DHT22;1482;51.398;7.128;2023-02-23T16:55:54;9.60;99.90
2945;DHT22;1482;51.398;7.128;2023-02-23T16:58:25;9.70;99.90
2945;DHT22;1482;51.398;7.128;2023-02-23T17:00:51;9.70;99.90
2945;DHT22;1482;51.398;7.128;2023-02-23T17:03:21;9.60;99.90
2945;DHT22;1482;51.398;7.128;2023-02-23T17:05:47;9.60;1.00
2945;DHT22;1482;51.398;7.128;2023-02-23T17:08:13;9.70;1.00
2945;DHT22;1482;51.398;7.128;2023-02-23T17:10:40;9.70;1.00
2945;DHT22;1482;51.398;7.128;2023-02-23T17:13:19;9.70;1.00
2945;DHT22;1482;51.398;7.128;2023-02-23T17:15:46;9.60;1.00
2945;DHT22;1482;51.398;7.128;2023-02-23T17:18:17;9.40;1.00
2945;DHT22;1482;51.398;7.128;2023-02-23T17:20:43;9.40;1.00
2945;DHT22;1482;51.398;7.128;2023-02-23T17:23:09;9.40;1.00
2945;DHT22;1482;51.398;7.128;2023-02-23T17:25:35;9.40;1.00
2945;DHT22;1482;51.398;7.128;2023-02-23T17:28:01;9.20;1.00
2945;DHT22;1482;51.398;7.128;2023-02-23T17:30:27;9.20;1.00
2945;DHT22;1482;51.398;7.128;2023-02-23T17:32:55;9.00;1.00
2945;DHT22;1482;51.398;7.128;2023-02-23T17:35:20;9.10;1.00
2945;DHT22;1482;51.398;7.128;2023-02-23T17:37:46;9.10;1.00
2945;DHT22;1482;51.398;7.128;2023-02-23T17:40:14;9.10;1.00
2945;DHT22;1482;51.398;7.128;2023-02-23T17:42:41;8.90;1.00
2945;DHT22;1482;51.398;7.128;2023-02-23T17:45:07;8.90;1.00
2945;DHT22;1482;51.398;7.128;2023-02-23T17:47:34;8.80;1.00
2945;DHT22;1482;51.398;7.128;2023-02-23T17:50:00;8.90;1.00
2945;DHT22;1482;51.398;7.128;2023-02-23T17:52:27;8.80;1.00
2945;DHT22;1482;51.398;7.128;2023-02-23T17:54:53;8.90;1.00
2945;DHT22;1482;51.398;7.128;2023-02-23T17:57:20;8.90;1.00
2945;DHT22;1482;51.398;7.128;2023-02-23T17:59:46;8.80;1.00
2945;DHT22;1482;51.398;7.128;2023-02-23T18:02:14;8.70;1.00
2945;DHT22;1482;51.398;7.128;2023-02-23T18:04:41;8.70;44.40
2945;DHT22;1482;51.398;7.128;2023-02-23T18:07:07;8.70;1.00
2945;DHT22;1482;51.398;7.128;2023-02-23T18:09:33;8.70;95.90
2945;DHT22;1482;51.398;7.128;2023-02-23T18:11:59;8.80;52.70
2945;DHT22;1482;51.398;7.128;2023-02-23T18:14:25;8.80;32.20
2945;DHT22;1482;51.398;7.128;2023-02-23T18:16:50;8.80;25.40
2945;DHT22;1482;51.398;7.128;2023-02-23T18:19:18;8.80;82.40
2945;DHT22;1482;51.398;7.128;2023-02-23T18:21:43;8.80;1.00
2945;DHT22;1482;51.398;7.128;2023-02-23T18:24:09;8.80;26.20
2945;DHT22;1482;51.398;7.128;2023-02-23T18:26:36;8.80;1.00
2945;DHT22;1482;51.398;7.128;2023-02-23T18:29:02;8.90;1.00
2945;DHT22;1482;51.398;7.128;2023-02-23T18:31:30;8.90;1.00
2945;DHT22;1482;51.398;7.128;2023-02-23T18:33:56;8.80;1.00
2945;DHT22;1482;51.398;7.128;2023-02-23T18:36:25;8.80;1.00
2945;DHT22;1482;51.398;7.128;2023-02-23T18:38:51;8.90;1.00